Terminal Aerodrome Forecast
Issued by NWS Charleston, WV

Current Version | Previous Version | Graphics & Text | Print | Product List | Glossary On
Versions: 1 2 3 4 5 6 7 8 9 10 11 12 13 14 15 16 17 18
000
FTUS41 KRLX 241500 AAA
TAFHTS
TAF AMD
KHTS 241535Z 2416/2512 17010G15KT P6SM BKN050
     FM241900 22018G40KT 3SM SHRA BR VCTS BKN035CB
     FM242100 22015G36KT 6SM SHRA BKN040
     FM242300 22013G30KT P6SM BKN035
     FM250200 23012G25KT P6SM BKN035
     FM250800 24010G22KT P6SM BKN020=

USA.gov is the U.S. government's official web portal to all federal, state and local government web resources and services.